Latest Weather Observations for Khancoban

IDN60801

Issued at 6:04 pm EDT Saturday 31 January 2015 (issued every 30 minutes, with the page automatically refreshed every 10 minutes)

About weather observations | Map of weather stations | Latest weather observations for NSW | Other Formats
Station Details ID: 072162 Name: KHANCOBAN AWS Lat: -36.23 Lon: 148.14 Height: 339.3 m
Data from the previous 72 hours. | See also: Recent months at Khancoban
Date/Time
EDT
Temp
°C
App
Temp
°C
Dew
Point
Rel
Hum
%
Delta-T
°C
Wind Press
QNH
hPa
Press
MSL
hPa
Rain
since 9 am
mm
Dir
 
Spd
km/h
Gust
km/h
Spd
kts
Gust
kts
31/05:30pm 22.3 20.1 9.5 44 7.0 S 11 15 6 8 1007.8 1006.2 0.0
31/05:00pm 22.5 19.6 8.2 40 7.7 S 13 20 7 11 1007.8 1006.2 0.0
31/04:30pm 22.8 20.7 9.6 43 7.3 SSE 11 17 6 9 1007.8 1006.2 0.0
31/04:00pm 23.0 19.9 8.7 40 7.8 S 15 24 8 13 1007.8 1006.2 0.0
31/03:30pm 24.7 21.6 9.0 37 8.6 SSW 15 20 8 11 1007.7 1006.1 0.0
31/03:00pm 22.6 19.4 8.3 40 7.7 S 15 20 8 11 1007.9 1006.3 0.0
31/02:30pm 24.2 20.7 8.6 37 8.5 SSW 17 24 9 13 1007.9 1006.3 0.0
31/02:00pm 23.3 20.5 8.6 39 8.0 SW 13 22 7 12 1007.9 1006.3 0.0
31/01:30pm 22.8 19.9 8.1 39 7.9 SSW 13 20 7 11 1008.1 1006.5 0.0
31/01:00pm 23.0 21.2 9.4 42 7.5 SW 9 20 5 11 1008.2 1006.6 0.0
31/12:30pm 21.9 18.7 9.8 46 6.6 WSW 17 24 9 13 1008.5 1006.9 0.0
31/12:00pm 21.3 19.1 9.5 47 6.4 WSW 11 19 6 10 1008.7 1007.1 0.0
31/11:30am 20.4 19.3 9.9 51 5.7 WNW 6 13 3 7 1009.4 1007.8 0.0
31/11:00am 19.3 18.1 9.5 53 5.3 NNW 6 13 3 7 1009.7 1008.1 0.0
31/10:30am 17.2 15.6 8.6 57 4.5 N 7 11 4 6 1010.0 1008.4 0.0
31/10:00am 15.8 14.3 8.5 62 3.8 NE 6 7 3 4 1010.1 1008.5 0.0
31/09:30am 14.1 12.1 8.5 69 2.9 SSW 9 11 5 6 1010.2 1008.6 0.0
31/09:00am 13.8 12.2 7.8 67 3.0 WNW 6 7 3 4 1010.0 1008.4 0.0
31/08:30am 12.2 11.9 8.5 78 1.9 CALM 0 0 0 0 1010.3 1008.7 0.0
31/08:00am 11.5 11.3 9.1 85 1.2 CALM 0 0 0 0 1010.3 1008.7 0.0
31/07:30am 8.2 7.4 8.2 100 0.0 S 2 7 1 4 1010.2 1008.6 0.0
31/07:00am 7.3 6.7 7.3 100 0.0 CALM 0 0 0 0 1010.0 1008.4 0.0
31/06:30am 7.1 6.4 7.1 100 0.0 CALM 0 4 0 2 1009.9 1008.3 0.0
31/05:30am 7.7 7.1 7.6 99 0.0 CALM 0 0 0 0 1009.1 1007.4 0.0
31/05:00am 7.9 7.4 7.8 99 0.0 CALM 0 0 0 0 1009.0 1007.3 0.0
31/04:30am 8.0 7.5 7.9 99 0.0 CALM 0 6 0 3 1009.1 1007.4 0.0
31/04:00am 8.2 7.8 8.1 99 0.0 CALM 0 6 0 3 1009.1 1007.4 0.0
31/03:30am 8.6 8.1 7.8 95 0.4 CALM 0 0 0 0 1009.3 1007.7 0.0
31/03:00am 9.4 9.0 8.2 92 0.6 CALM 0 4 0 2 1009.4 1007.8 0.0
31/02:30am 9.8 8.3 9.0 95 0.4 SSE 7 9 4 5 1009.7 1008.1 0.0
31/02:00am 9.9 8.8 8.3 90 0.8 SE 4 9 2 5 1009.9 1008.3 0.0
31/01:30am 9.6 8.4 7.9 89 0.8 SSE 4 7 2 4 1010.0 1008.4 0.0
31/01:00am 10.3 9.9 8.2 87 1.0 CALM 0 4 0 2 1010.1 1008.5 0.0
31/12:30am 10.2 9.4 8.0 86 1.1 S 2 6 1 3 1009.9 1008.3 0.0
31/12:00am 11.2 10.8 8.2 82 1.5 CALM 0 6 0 3 1010.1 1008.5 0.0
 
Date/Time
EDT
Temp
°C
App
Temp
°C
Dew
Point
Rel
Hum
%
Delta-T
°C
Wind Press
QNH
hPa
Press
MSL
hPa
Rain
since 9 am
mm
Dir
 
Spd
km/h
Gust
km/h
Spd
kts
Gust
kts
30/11:30pm 11.1 10.7 8.1 82 1.5 CALM 0 0 0 0 1010.3 1008.7 0.0
30/11:00pm 11.3 10.0 7.6 78 1.8 NE 4 6 2 3 1010.5 1008.9 0.0
30/10:30pm 12.3 10.5 8.0 75 2.2 SE 7 9 4 5 1010.6 1009.0 0.0
30/10:00pm 13.5 11.6 7.7 68 2.9 SE 7 13 4 7 1010.6 1009.1 0.0
30/09:30pm 15.4 12.6 8.4 63 3.6 SE 13 20 7 11 1010.7 1009.1 0.0
30/09:00pm 15.2 12.7 8.0 62 3.7 SE 11 20 6 11 1010.4 1008.8 0.0
30/08:30pm 16.5 13.6 8.2 58 4.3 SE 13 20 7 11 1010.2 1008.6 0.0
30/08:00pm 17.1 13.9 8.3 56 4.6 SE 15 24 8 13 1010.1 1008.5 0.0
30/07:30pm 18.0 14.0 8.3 53 5.1 SSE 19 28 10 15 1009.8 1008.2 0.0
30/07:00pm 19.0 15.4 8.4 50 5.6 S 17 24 9 13 1009.6 1008.0 0.0
30/06:30pm 18.0 15.7 9.1 56 4.7 SE 11 17 6 9 1009.4 1007.8 0.0
30/06:00pm 19.1 16.5 9.3 53 5.3 SSW 13 19 7 10 1009.5 1007.9 0.0
30/05:30pm 18.6 15.2 9.1 54 5.1 SSW 17 28 9 15 1009.7 1008.1 0.0
30/05:00pm 19.5 17.8 8.2 48 6.0 WSW 7 11 4 6 1009.6 1008.0 0.0
30/04:30pm 19.0 17.3 7.4 47 6.0 N 6 9 3 5 1009.7 1008.1 0.0
30/04:00pm 19.1 17.8 7.5 47 6.0 SE 4 7 2 4 1009.8 1008.2 0.0
30/03:30pm 19.0 17.2 7.8 48 5.8 SW 7 11 4 6 1010.0 1008.4 0.0
30/03:00pm 20.6 18.8 7.9 44 6.7 W 7 15 4 8 1010.2 1008.6 0.0
30/02:30pm 20.3 17.1 8.3 46 6.4 SW 15 24 8 13 1010.4 1008.8 0.0
30/02:00pm 19.6 16.6 7.7 46 6.2 SW 13 20 7 11 1010.8 1009.2 0.0
30/01:30pm 19.4 15.1 7.2 45 6.3 SSW 19 26 10 14 1011.0 1009.4 0.0
30/01:00pm 19.2 15.3 7.0 45 6.3 SSW 17 26 9 14 1011.2 1009.6 0.0
30/12:30pm 19.2 15.7 7.0 45 6.3 S 15 20 8 11 1011.4 1009.8 0.0
30/12:00pm 18.8 13.2 5.6 42 6.6 SSW 24 33 13 18 1011.5 1009.9 0.0
30/11:30am 19.0 15.0 6.5 44 6.3 S 17 24 9 13 1011.7 1010.1 0.0
30/11:00am 18.7 14.8 5.5 42 6.6 S 15 22 8 12 1012.1 1010.5 0.0
30/10:30am 17.7 12.9 5.6 45 6.0 S 20 32 11 17 1012.2 1010.6 0.0
30/10:00am 17.7 13.9 5.6 45 6.0 SSE 15 24 8 13 1012.3 1010.7 0.0
30/09:30am 16.1 12.8 4.8 47 5.4 SSE 11 17 6 9 1012.4 1010.8 0.0
30/09:00am 14.6 12.5 6.7 59 3.9 NNW 7 11 4 6 1012.7 1011.1 0.0
30/08:30am 13.6 10.6 6.2 61 3.6 N 11 15 6 8 1012.7 1011.1 0.0
30/08:00am 11.9 10.5 7.4 74 2.2 NE 4 9 2 5 1012.7 1011.1 0.0
30/07:30am 9.5 8.0 8.3 92 0.6 SSW 6 11 3 6 1012.3 1010.7 0.0
30/07:00am 8.8 8.1 7.1 89 0.8 CALM 0 0 0 0 1012.2 1010.6 0.0
30/06:30am 8.4 6.5 6.7 89 0.8 SE 6 7 3 4 1012.2 1010.6 0.0
30/06:00am 8.0 7.0 5.8 86 1.0 CALM 0 0 0 0 1011.8 1010.2 0.0
30/05:30am 8.5 6.5 6.3 86 1.0 SSE 6 9 3 5 1011.9 1010.4 0.0
30/05:00am 8.2 6.6 6.2 87 0.9 SSE 4 7 2 4 1011.9 1010.4 0.0
30/04:30am 8.6 6.4 5.4 80 1.5 ENE 6 11 3 6 1012.1 1010.5 0.0
30/04:00am 8.6 7.2 5.4 80 1.5 E 2 11 1 6 1012.4 1010.8 0.0
30/03:30am 8.3 7.2 5.2 81 1.4 CALM 0 0 0 0 1012.6 1011.0 0.0
30/03:00am 8.8 7.4 5.7 81 1.4 NE 2 7 1 4 1012.7 1011.1 0.0
30/02:30am 8.4 6.0 5.3 81 1.4 SSE 7 9 4 5 1013.0 1011.4 0.0
30/02:00am 9.7 8.7 5.5 75 2.0 CALM 0 0 0 0 1013.3 1011.7 0.0
30/01:30am 10.0 9.1 6.2 77 1.8 CALM 0 6 0 3 1013.7 1012.1 0.0
30/01:00am 10.1 8.4 5.7 74 2.1 S 4 7 2 4 1013.9 1012.3 0.0
30/12:30am 11.4 8.8 6.3 71 2.4 SE 9 11 5 6 1014.1 1012.5 0.0
30/12:00am 11.0 9.0 6.4 73 2.2 SE 6 7 3 4 1014.4 1012.8 0.0
 
Date/Time
EDT
Temp
°C
App
Temp
°C
Dew
Point
Rel
Hum
%
Delta-T
°C
Wind Press
QNH
hPa
Press
MSL
hPa
Rain
since 9 am
mm
Dir
 
Spd
km/h
Gust
km/h
Spd
kts
Gust
kts
29/11:30pm 11.0 9.0 6.2 72 2.3 SSE 6 7 3 4 1014.6 1013.1 0.0
29/11:00pm 11.3 9.0 5.8 69 2.6 SSE 7 11 4 6 1014.7 1013.2 0.0
29/10:30pm 12.3 10.2 5.9 65 3.1 SSE 6 13 3 7 1014.8 1013.3 0.0
29/10:00pm 12.4 10.3 5.8 64 3.1 SE 6 11 3 6 1014.9 1013.4 0.0
29/09:30pm 14.4 11.3 5.7 56 4.2 SSE 11 17 6 9 1014.9 1013.4 0.0
29/09:00pm 14.8 11.3 5.6 54 4.5 SSE 13 20 7 11 1014.6 1013.1 0.0
29/08:30pm 15.4 10.6 5.6 52 4.8 S 20 32 11 17 1014.6 1013.1 0.0
29/08:00pm 16.4 11.3 6.2 51 5.1 S 22 35 12 19 1014.3 1012.7 0.0
29/07:30pm 18.3 12.4 5.8 44 6.2 S 26 37 14 20 1013.8 1012.2 0.0
29/07:05pm 18.9 12.6 5.7 42 6.6 S 28 46 15 25 1013.5 1011.9 0.0
29/07:00pm 19.2 13.3 6.0 42 6.6 S 26 37 14 20 1013.5 1011.9 0.0
29/06:31pm 19.6 12.8 5.3 39 7.1 S 30 48 16 26 1013.0 1011.4 0.0
29/06:30pm 19.8 13.5 5.5 39 7.2 S 28 44 15 24 1013.0 1011.4 0.0
29/06:11pm 20.4 13.5 4.8 36 7.7 SSW 30 50 16 27 1012.9 1011.3 0.0
29/06:00pm 21.1 14.8 5.9 37 7.7 S 28 44 15 24 1012.9 1011.3 0.0
29/05:30pm 22.2 16.1 6.4 36 8.2 SSW 28 44 15 24 1012.8 1011.2 0.0
29/05:00pm 22.4 16.7 6.6 36 8.2 S 26 41 14 22 1013.0 1011.4 0.0
29/04:30pm 22.2 16.8 6.4 36 8.2 S 24 39 13 21 1013.0 1011.4 0.0
29/04:00pm 22.6 17.0 5.5 33 8.7 SSW 24 35 13 19 1013.0 1011.4 0.0
29/03:30pm 22.5 16.6 5.9 34 8.5 S 26 39 14 21 1013.4 1011.8 0.0
29/03:00pm 22.7 16.5 6.0 34 8.6 S 28 48 15 26 1013.5 1011.9 0.0
29/02:57pm 22.1 15.3 5.1 33 8.6 SSW 30 48 16 26 1013.5 1011.9 0.0
29/02:30pm 21.9 15.8 6.6 37 7.9 SSW 28 39 15 21 1013.9 1012.3 0.0
29/02:14pm 22.0 15.2 5.0 33 8.6 SSW 30 48 16 26 1014.0 1012.4 0.0
29/02:00pm 21.9 14.3 5.8 35 8.2 SSW 35 48 19 26 1014.0 1012.4 0.0
29/01:50pm 22.1 15.8 5.5 34 8.4 SSW 28 52 15 28 1013.9 1012.3 0.0
29/01:30pm 21.9 16.1 6.2 36 8.1 SSW 26 37 14 20 1014.1 1012.5 0.0
29/01:00pm 22.3 17.4 6.9 37 8.0 SSW 22 37 12 20 1014.6 1013.1 0.0
29/12:30pm 21.3 15.1 6.0 37 7.8 SSW 28 39 15 21 1014.9 1013.4 0.0
29/12:00pm 21.1 16.4 5.9 37 7.7 SSW 20 32 11 17 1015.2 1013.6 0.0
29/11:30am 20.4 16.8 6.7 41 7.0 S 15 24 8 13 1015.5 1013.9 0.0
29/11:00am 20.1 15.0 7.5 44 6.6 SSW 24 35 13 19 1015.7 1014.1 0.0
29/10:30am 18.4 13.4 6.3 45 6.1 S 22 32 12 17 1016.0 1014.4 0.0
29/10:00am 17.9 12.4 5.8 45 6.0 S 24 37 13 20 1016.0 1014.4 0.0
29/09:30am 17.4 13.0 6.6 49 5.4 S 19 28 10 15 1016.3 1014.7 0.0
29/09:00am 16.3 11.6 5.3 48 5.3 S 19 28 10 15 1016.5 1014.9 0.0
29/08:30am 15.6 12.3 6.3 54 4.6 S 13 19 7 10 1016.5 1014.9 0.0
29/08:00am 12.8 11.3 6.8 67 2.9 SW 4 7 2 4 1016.5 1014.9 0.0
29/07:30am 9.7 8.6 7.0 83 1.3 NNE 2 7 1 4 1016.5 1014.9 0.0
29/07:00am 7.8 5.7 5.6 86 1.0 SSW 6 9 3 5 1016.2 1014.6 0.0
29/06:30am 8.4 6.6 5.5 82 1.3 E 4 7 2 4 1016.2 1014.6 0.0
29/06:00am 7.9 6.4 5.0 82 1.3 ENE 2 9 1 5 1015.9 1014.3 0.0
29/05:30am 8.5 6.3 5.3 80 1.5 E 6 9 3 5 1015.6 1014.0 0.0
29/05:00am 8.1 6.1 4.3 77 1.7 SE 4 9 2 5 1015.4 1013.8 0.0
29/04:30am 8.4 6.8 4.6 77 1.7 SE 2 9 1 5 1015.2 1013.6 0.0
29/04:00am 9.4 7.9 4.8 73 2.1 SW 2 7 1 4 1015.2 1013.6 0.0
29/03:30am 9.5 8.1 5.3 75 1.9 NE 2 6 1 3 1015.4 1013.8 0.0
29/03:00am 10.2 8.0 5.4 72 2.2 SSE 6 7 3 4 1015.7 1014.1 0.0
29/02:30am 11.5 9.3 5.2 65 2.9 SE 6 15 3 8 1015.9 1014.3 0.0
29/02:00am 13.3 10.2 5.7 60 3.6 SSE 11 19 6 10 1015.8 1014.2 0.0
29/01:30am 13.5 10.5 6.1 61 3.6 SSE 11 15 6 8 1015.9 1014.3 0.0
29/01:00am 13.3 10.6 5.7 60 3.6 SSE 9 13 5 7 1015.9 1014.3 0.0
29/12:30am 13.9 10.4 5.3 56 4.1 S 13 20 7 11 1016.3 1014.7 0.0
29/12:00am 14.8 10.6 5.6 54 4.4 S 17 22 9 12 1016.2 1014.6 0.0
 
Date/Time
EDT
Temp
°C
App
Temp
°C
Dew
Point
Rel
Hum
%
Delta-T
°C
Wind Press
QNH
hPa
Press
MSL
hPa
Rain
since 9 am
mm
Dir
 
Spd
km/h
Gust
km/h
Spd
kts
Gust
kts
28/11:30pm 15.3 11.2 6.1 54 4.5 S 17 28 9 15 1016.4 1014.8 0.0
28/11:00pm 15.0 11.9 7.1 59 3.9 S 13 22 7 12 1016.3 1014.7 0.0
28/10:30pm 15.4 12.3 7.2 58 4.1 SSE 13 19 7 10 1016.3 1014.7 0.0
28/10:00pm 15.5 12.4 7.3 58 4.1 S 13 19 7 10 1016.1 1014.5 0.0
28/09:30pm 16.7 12.9 7.4 54 4.7 S 17 22 9 12 1015.8 1014.2 0.0
28/09:00pm 17.0 13.5 7.1 52 5.0 S 15 22 8 12 1015.4 1013.8 0.0
28/08:30pm 17.7 14.6 7.4 51 5.3 S 13 17 7 9 1015.0 1013.5 0.0
28/08:00pm 19.0 14.6 7.4 47 6.0 S 20 30 11 16 1014.6 1013.1 0.0
28/07:30pm 20.3 15.3 8.0 45 6.5 S 24 33 13 18 1014.2 1012.6 0.0
28/07:00pm 21.2 16.0 7.4 41 7.2 S 24 35 13 19 1013.9 1012.3 0.0
28/06:30pm 22.5 17.1 8.2 40 7.7 S 26 37 14 20 1013.6 1012.0 0.0

Other Formats:

Comma delimited format used in spreadsheet applications
http://www.bom.gov.au/fwo/IDN60801/IDN60801.94919.axf

JavaScript Object Notation format (JSON) in row-major order
http://www.bom.gov.au/fwo/IDN60801/IDN60801.94919.json